• Join FlightAware (Why Join?)
  • Login
  • US Flag 
11:14PM EST


 

Airport Tracker/Info


-or-


 

Live Flight TrackerFlight Track Log ✈ DAL6035 ✈ 03-May-2013 ✈ KMHT - KLGA

Flight Track Log - Related Links

Times and Time Zones

All times are in EDT time to prevent confusion due to time zone crossing. See the DAL6035 flight status page for this flight to view local times or setup timezone preferences in your user account.

Time Position Orientation Groundspeed Altitude Reporting Facility
EDT Latitude Longitude Course Direction KTS MPH feet Rate Location/Type
05:48PM 42.9167 -71.4167 231° Southwest 153 176 900  Level KA90
05:50PM 42.8800 -71.4994 239° Southwest 231 266 3,900 2,040 Climbing Boston Center
05:51PM 42.7051 -71.7039 228° Southwest  Level Estimated
05:51PM 42.8850 -71.5928 274° West 246 283 6,300  Level Boston Center
05:52PM 42.6291 -71.7929 236° Southwest  Level Estimated
05:52PM 42.8647 -71.6839 253° West 255 293 8,400  Level Boston Center
05:53PM 42.5530 -71.8816 231° Southwest  Level Estimated
05:53PM 42.8069 -71.7636 225° Southwest 278 320 10,600  Level Boston Center
05:54PM 42.7489 -71.8492 227° Southwest 304 350 11,900 1,560 Climbing Boston Center
05:55PM 42.6869 -71.9431 228° Southwest 327 376 13,800 1,620 Climbing Boston Center
05:56PM 42.6228 -72.0394 228° Southwest 345 397 15,200 1,500 Climbing Boston Center
05:57PM 42.5564 -72.1386 228° Southwest 351 404 16,800 1,260 Climbing Boston Center
05:58PM 42.4878 -72.2375 227° Southwest 356 410 17,800 480 Climbing Boston Center
05:59PM 42.4044 -72.3053 211° Southwest 368 423 17,800 -300 Level Boston Center
06:00PM 42.3003 -72.3839 209° Southwest 391 450 17,300 -600 Descending Boston Center
06:01PM 42.2233 -72.4822 223° Southwest 391 450 16,700 -840 Descending Boston Center
06:02PM 42.1647 -72.6053 237° Southwest 386 444 15,700 -900 Descending Boston Center
06:03PM 42.1231 -72.6836 234° Southwest 386 444 15,000 -900 Descending Boston Center
06:04PM 42.0392 -72.8342 233° Southwest 386 444 14,000 -540 Descending Boston Center
06:05PM 41.9700 -72.9314 226° Southwest 380 437 14,000  Level Boston Center
06:06PM 41.9008 -72.9981 216° Southwest 359 413 14,000  Level Boston Center
06:07PM 41.8150 -73.0781 215° Southwest 346 398 14,000  Level Boston Center
06:08PM 41.7539 -73.2108 238° Southwest 342 394 14,000  Level Boston Center
06:09PM 41.7031 -73.3214 238° Southwest 353 406 14,000 -300 Level Boston Center
06:11PM 41.5500 -73.5333 226° Southwest 354 407 13,200 -660 Descending New York TRACON
06:12PM 41.4833 -73.6167 223° Southwest 348 400 12,000 -1,320 Descending New York TRACON
06:13PM 41.4167 -73.7000 223° Southwest 318 366 10,600 -1,500 Descending New York TRACON
06:14PM 41.3500 -73.7667 217° Southwest 292 336 9,100 -840 Descending New York TRACON
06:15PM 41.2833 -73.7500 169° South 267 307 9,000 -720 Descending New York TRACON
06:16PM 41.2167 -73.6833 143° Southeast 264 304 7,700 -1,440 Descending New York TRACON
06:17PM 41.1667 -73.6333 143° Southeast 250 288 6,200 -1,500 Descending New York TRACON
06:18PM 41.1000 -73.6333 180° South 249 287 4,800 -1,140 Descending New York TRACON
06:19PM 41.0333 -73.6667 201° Southwest 235 270 4,000 -480 Descending New York TRACON
06:20PM 40.9833 -73.7000 207° Southwest 213 245 3,900 -480 Descending New York TRACON
06:21PM 40.9333 -73.7500 217° Southwest 208 239 3,100 -840 Descending New York TRACON